createdAt,value
2023-02-11T00:01:38.727Z,1.44
2023-02-11T00:04:08.002Z,1.37
2023-02-11T00:06:37.190Z,1.42
2023-02-11T00:09:06.478Z,1.45
2023-02-11T00:11:36.436Z,1.46
2023-02-11T00:14:08.637Z,1.46
2023-02-11T00:16:39.204Z,1.51
2023-02-11T00:19:07.776Z,1.52
2023-02-11T00:21:36.654Z,1.58
2023-02-11T00:24:05.568Z,1.60
2023-02-11T00:26:37.227Z,1.52
2023-02-11T00:29:06.264Z,1.59
2023-02-11T00:31:36.177Z,1.66
2023-02-11T00:34:04.936Z,1.68
2023-02-11T00:36:33.492Z,1.69
2023-02-11T00:39:02.241Z,1.73
2023-02-11T00:41:31.329Z,1.73
2023-02-11T00:44:01.317Z,1.77
2023-02-11T00:46:29.928Z,1.79
2023-02-11T00:48:58.445Z,1.81
2023-02-11T00:51:27.858Z,1.82
2023-02-11T00:53:56.684Z,1.82
2023-02-11T00:56:25.201Z,1.83
2023-02-11T00:58:54.333Z,1.86
2023-02-11T01:01:24.624Z,1.86
2023-02-11T01:03:53.574Z,1.78
2023-02-11T01:06:25.143Z,1.84
2023-02-11T01:08:53.652Z,1.83
2023-02-11T01:11:23.280Z,1.83
2023-02-11T01:13:52.188Z,1.83
2023-02-11T01:16:24.925Z,1.86
2023-02-11T01:18:53.306Z,1.81
2023-02-11T01:21:21.827Z,1.86
2023-02-11T01:23:50.304Z,1.83
2023-02-11T01:26:18.978Z,1.81
2023-02-11T01:28:47.657Z,1.78
2023-02-11T01:31:16.315Z,1.72
2023-02-11T01:33:46.969Z,1.68
2023-02-11T01:36:15.374Z,1.68
2023-02-11T01:38:44.973Z,1.63
2023-02-11T01:41:15.979Z,1.60
2023-02-11T01:43:47.985Z,1.61
2023-02-11T01:46:26.512Z,1.55
2023-02-11T01:48:59.189Z,1.50
2023-02-11T01:51:32.913Z,1.41
2023-02-11T01:54:20.633Z,1.46
2023-02-11T01:57:10.294Z,1.45
2023-02-11T01:59:43.344Z,1.44
2023-02-11T02:02:16.828Z,1.43
2023-02-11T02:04:55.136Z,1.41
2023-02-11T02:07:32.107Z,1.40
2023-02-11T02:10:06.307Z,1.43
2023-02-11T02:12:34.696Z,1.39
2023-02-11T02:15:28.255Z,1.38
2023-02-11T02:18:05.502Z,1.32
2023-02-11T02:21:03.469Z,1.33
2023-02-11T02:23:55.330Z,1.34
2023-02-11T02:27:17.215Z,1.35
2023-02-11T02:30:16.511Z,1.39
2023-02-11T02:33:02.144Z,1.36
2023-02-11T02:35:44.282Z,1.37
2023-02-11T02:38:17.587Z,1.42
2023-02-11T02:40:51.224Z,1.41
2023-02-11T02:43:21.574Z,1.40
2023-02-11T02:45:50.284Z,1.46
2023-02-11T02:48:28.715Z,1.50
2023-02-11T02:51:08.286Z,1.52
2023-02-11T02:53:52.947Z,1.53
2023-02-11T02:56:29.338Z,1.57
2023-02-11T02:59:14.322Z,1.58
2023-02-11T03:01:51.807Z,1.62
2023-02-11T03:04:31.051Z,1.59
2023-02-11T03:07:05.511Z,1.64
2023-02-11T03:09:39.373Z,1.65
2023-02-11T03:12:09.396Z,1.66
2023-02-11T03:14:39.129Z,1.68
2023-02-11T03:17:10.399Z,1.70
2023-02-11T03:19:44.653Z,1.69
2023-02-11T03:22:20.047Z,1.71
2023-02-11T03:24:51.032Z,1.69
2023-02-11T03:27:23.786Z,1.69
2023-02-11T03:29:57.226Z,1.68
2023-02-11T03:32:30.126Z,1.74
2023-02-11T03:35:03.667Z,1.75
2023-02-11T03:37:37.225Z,1.77
2023-02-11T03:40:10.388Z,1.77
2023-02-11T03:42:44.032Z,1.77
2023-02-11T03:45:15.128Z,1.79
2023-02-11T03:47:48.226Z,1.79
2023-02-11T03:50:20.055Z,1.80
2023-02-11T03:52:50.780Z,1.79
2023-02-11T03:55:22.554Z,1.80
2023-02-11T03:57:51.093Z,1.79
2023-02-11T04:00:20.192Z,1.75
2023-02-11T04:02:48.651Z,1.78
2023-02-11T04:05:18.984Z,1.80
2023-02-11T04:07:47.464Z,1.80
2023-02-11T04:10:16.272Z,1.80
2023-02-11T04:12:44.856Z,1.75
2023-02-11T04:15:13.401Z,1.81
2023-02-11T04:17:42.124Z,1.81
2023-02-11T04:20:11.727Z,1.83
2023-02-11T04:22:41.823Z,1.86
2023-02-11T04:25:11.632Z,1.87
2023-02-11T04:27:40.055Z,1.88
2023-02-11T04:30:10.289Z,1.86
2023-02-11T04:32:38.685Z,1.88
2023-02-11T04:35:08.002Z,1.86
2023-02-11T04:37:37.065Z,1.87
2023-02-11T04:40:08.109Z,1.90
2023-02-11T04:42:36.546Z,1.89
2023-02-11T04:45:05.812Z,1.89
2023-02-11T04:47:34.250Z,1.89
2023-02-11T04:50:03.052Z,1.87
2023-02-11T04:52:31.539Z,1.81
2023-02-11T04:55:00.047Z,1.85
2023-02-11T04:57:30.067Z,1.94
2023-02-11T04:59:58.662Z,1.96
2023-02-11T05:02:27.149Z,1.97
2023-02-11T05:04:55.794Z,2.03
2023-02-11T05:07:24.541Z,2.01
2023-02-11T05:09:53.312Z,2.10
2023-02-11T05:12:22.414Z,2.15
2023-02-11T05:14:53.157Z,2.19
2023-02-11T05:17:21.536Z,2.20
2023-02-11T05:19:50.031Z,2.31
2023-02-11T05:22:18.430Z,2.38
2023-02-11T05:24:47.096Z,2.36
2023-02-11T05:27:16.293Z,2.42
2023-02-11T05:29:44.929Z,2.45
2023-02-11T05:32:14.751Z,2.40
2023-02-11T05:34:43.243Z,2.39
2023-02-11T05:37:11.685Z,2.47
2023-02-11T05:39:40.221Z,2.51
2023-02-11T05:42:08.869Z,2.55
2023-02-11T05:44:37.687Z,2.49
2023-02-11T05:47:09.220Z,2.56
2023-02-11T05:49:39.163Z,2.60
2023-02-11T05:52:07.896Z,2.56
2023-02-11T05:54:36.325Z,2.63
2023-02-11T05:57:04.911Z,2.61
2023-02-11T05:59:34.032Z,2.58
2023-02-11T06:02:02.540Z,2.52
2023-02-11T06:04:31.283Z,2.59
2023-02-11T06:07:02.323Z,2.54
2023-02-11T06:09:31.164Z,2.56
2023-02-11T06:11:59.907Z,2.55
2023-02-11T06:14:28.389Z,2.53
2023-02-11T06:16:56.868Z,2.57
2023-02-11T06:19:25.388Z,2.59
2023-02-11T06:21:53.845Z,2.52
2023-02-11T06:24:47.829Z,2.65
2023-02-11T06:27:12.118Z,2.69
2023-02-11T06:29:40.536Z,2.67
2023-02-11T06:32:23.332Z,2.62
2023-02-11T06:34:57.512Z,2.72
2023-02-11T06:37:25.940Z,2.64
2023-02-11T06:39:55.911Z,2.74
2023-02-11T06:42:24.413Z,2.74
2023-02-11T06:44:52.940Z,2.74
2023-02-11T06:47:21.618Z,2.73
2023-02-11T06:49:50.176Z,2.74
2023-02-11T06:52:19.124Z,2.75
2023-02-11T06:54:48.380Z,2.75
2023-02-11T06:57:18.288Z,2.77
2023-02-11T06:59:46.886Z,2.80
2023-02-11T07:02:15.520Z,2.83
2023-02-11T07:04:44.322Z,2.84
2023-02-11T07:07:12.870Z,2.77
2023-02-11T07:09:41.542Z,2.89
2023-02-11T07:12:12.132Z,2.89
2023-02-11T07:14:42.360Z,2.93
2023-02-11T07:17:10.841Z,2.93
2023-02-11T07:19:39.908Z,2.86
2023-02-11T07:22:08.613Z,2.96
2023-02-11T07:24:37.322Z,3.00
2023-02-11T07:27:06.082Z,3.02
2023-02-11T07:29:34.648Z,3.02
2023-02-11T07:32:04.828Z,3.03
2023-02-11T07:34:33.692Z,2.98
2023-02-11T07:37:02.156Z,3.09
2023-02-11T07:39:30.871Z,3.10
2023-02-11T07:42:00.480Z,3.09
2023-02-11T07:44:29.174Z,3.15
2023-02-11T07:46:57.820Z,3.20
2023-02-11T07:49:28.105Z,3.28
2023-02-11T07:51:56.998Z,3.34
2023-02-11T07:54:25.371Z,3.40
2023-02-11T07:56:54.181Z,3.47
2023-02-11T07:59:22.697Z,3.51
2023-02-11T08:01:51.846Z,3.54
2023-02-11T08:04:20.336Z,3.61
2023-02-11T08:06:53.307Z,3.61
2023-02-11T08:09:22.605Z,3.65
2023-02-11T08:11:51.017Z,3.66
2023-02-11T08:14:20.780Z,3.69
2023-02-11T08:16:49.801Z,3.72
2023-02-11T08:19:18.908Z,3.64
2023-02-11T08:21:48.231Z,3.77
2023-02-11T08:24:18.850Z,3.78
2023-02-11T08:26:47.232Z,3.81
2023-02-11T08:29:16.738Z,3.78
2023-02-11T08:31:48.314Z,3.85
2023-02-11T08:34:19.257Z,3.90
2023-02-11T08:36:50.130Z,3.87
2023-02-11T08:39:21.580Z,3.85
2023-02-11T08:41:51.915Z,4.10
2023-02-11T08:44:22.140Z,4.06
2023-02-11T08:46:51.432Z,4.03
2023-02-11T08:49:20.504Z,4.01
2023-02-11T08:51:49.394Z,4.05
2023-02-11T08:54:20.851Z,4.04
2023-02-11T08:56:53.420Z,4.07
2023-02-11T08:59:22.938Z,4.07
2023-02-11T09:01:52.079Z,4.03
2023-02-11T09:04:21.049Z,4.09
2023-02-11T09:06:49.670Z,4.10
2023-02-11T09:09:19.676Z,4.11
2023-02-11T09:11:48.683Z,4.14
2023-02-11T09:14:20.041Z,4.17
2023-02-11T09:16:49.382Z,4.18
2023-02-11T09:19:19.038Z,4.19
2023-02-11T09:21:47.831Z,4.25
2023-02-11T09:24:17.046Z,4.16
2023-02-11T09:26:46.920Z,4.30
2023-02-11T09:29:15.329Z,4.32
2023-02-11T09:31:43.922Z,4.32
2023-02-11T09:34:13.405Z,4.35
2023-02-11T09:36:43.049Z,4.35
2023-02-11T09:39:14.496Z,4.40
2023-02-11T09:42:12.021Z,4.40
2023-02-11T09:44:41.230Z,4.42
2023-02-11T09:47:25.485Z,4.44
2023-02-11T09:49:59.012Z,4.49
2023-02-11T09:52:37.241Z,4.57
2023-02-11T09:55:08.203Z,4.61
2023-02-11T09:57:38.682Z,4.62
2023-02-11T10:00:20.087Z,4.68
2023-02-11T10:03:02.656Z,4.69
2023-02-11T10:05:45.533Z,4.74
2023-02-11T10:08:21.376Z,4.79
2023-02-11T10:10:54.262Z,4.85
2023-02-11T10:13:48.692Z,4.86
2023-02-11T10:16:36.210Z,4.87
2023-02-11T10:19:22.810Z,4.88
2023-02-11T10:22:00.881Z,4.93
2023-02-11T10:24:30.119Z,4.84
2023-02-11T10:26:59.498Z,5.04
2023-02-11T10:29:37.886Z,5.04
2023-02-11T10:32:15.217Z,5.05
2023-02-11T10:34:44.296Z,5.01
2023-02-11T10:37:15.876Z,4.96
2023-02-11T10:39:44.935Z,5.02
2023-02-11T10:42:14.239Z,5.04
2023-02-11T10:44:56.540Z,5.01
2023-02-11T10:47:28.819Z,4.99
2023-02-11T10:50:03.449Z,5.05
2023-02-11T10:52:32.867Z,5.11
2023-02-11T10:55:05.264Z,5.10
2023-02-11T10:57:38.179Z,5.11
2023-02-11T11:00:24.431Z,5.19
2023-02-11T11:02:58.408Z,5.42
2023-02-11T11:05:33.425Z,5.57
2023-02-11T11:08:05.843Z,5.80
2023-02-11T11:10:44.596Z,5.85
2023-02-11T11:13:28.699Z,5.96
2023-02-11T11:16:29.693Z,5.97
2023-02-11T11:32:22.588Z,6.24
2023-02-11T11:34:52.831Z,6.68
2023-02-11T11:37:27.387Z,6.50
2023-02-11T11:40:00.714Z,6.47
2023-02-11T11:42:31.026Z,6.54
2023-02-11T11:45:01.853Z,6.55
2023-02-11T11:47:49.012Z,6.59
2023-02-11T11:50:27.636Z,6.63
2023-02-11T11:53:01.972Z,6.70
2023-02-11T11:55:36.402Z,6.72
2023-02-11T11:58:07.050Z,6.73
2023-02-11T12:00:39.416Z,6.70
2023-02-11T12:03:49.019Z,6.70
2023-02-11T12:06:32.685Z,6.68
2023-02-11T12:09:11.260Z,6.63
2023-02-11T12:12:04.157Z,6.61
2023-02-11T12:14:42.734Z,6.57
2023-02-11T12:17:20.328Z,6.58
2023-02-11T12:20:18.355Z,6.54
2023-02-11T12:23:02.075Z,6.58
2023-02-11T12:25:36.027Z,6.57
2023-02-11T12:28:27.854Z,6.58
2023-02-11T12:31:07.999Z,6.58
2023-02-11T12:33:53.434Z,6.60
2023-02-11T12:36:39.054Z,6.61
2023-02-11T12:39:21.920Z,6.63
2023-02-11T12:42:25.026Z,6.64
2023-02-11T12:45:09.784Z,6.68
2023-02-11T12:47:50.939Z,6.68
2023-02-11T12:50:29.425Z,6.69
2023-02-11T12:53:16.035Z,6.73
2023-02-11T12:55:48.165Z,6.73
2023-02-11T12:58:29.654Z,6.71
2023-02-11T13:01:08.090Z,6.72
2023-02-11T13:03:40.592Z,6.70
2023-02-11T13:06:13.149Z,6.73
2023-02-11T13:08:47.702Z,6.73
2023-02-11T13:11:20.937Z,6.72
2023-02-11T13:13:54.089Z,6.73
2023-02-11T13:16:32.721Z,6.76
2023-02-11T13:19:09.309Z,6.75
2023-02-11T13:21:51.559Z,6.78
2023-02-11T13:24:28.414Z,6.76
2023-02-11T13:27:06.765Z,6.78
2023-02-11T13:29:51.542Z,6.79
2023-02-11T13:32:20.105Z,6.80
2023-02-11T13:35:01.148Z,6.79
2023-02-11T13:37:36.273Z,6.80
2023-02-11T13:40:21.660Z,6.78
2023-02-11T13:42:53.130Z,6.79
2023-02-11T13:45:31.865Z,6.76
2023-02-11T13:48:02.985Z,6.73
2023-02-11T13:50:37.922Z,6.79
2023-02-11T13:53:09.274Z,6.81
2023-02-11T13:55:47.224Z,6.81
2023-02-11T13:58:21.508Z,6.77
2023-02-11T14:00:52.782Z,6.75
2023-02-11T14:04:03.595Z,6.74
2023-02-11T14:07:00.974Z,6.74
2023-02-11T14:09:39.000Z,6.73
2023-02-11T14:12:36.477Z,6.73
2023-02-11T14:15:28.472Z,6.69
2023-02-11T14:17:56.833Z,6.71
2023-02-11T14:20:38.351Z,6.72
2023-02-11T14:23:08.437Z,6.71
2023-02-11T14:25:40.375Z,6.72
2023-02-11T14:28:22.711Z,6.72
2023-02-11T14:31:02.523Z,6.69
2023-02-11T14:34:12.930Z,6.67
2023-02-11T14:37:09.637Z,6.67
2023-02-11T14:39:57.430Z,6.65
2023-02-11T14:42:29.471Z,6.63
2023-02-11T14:45:06.649Z,6.60
2023-02-11T14:47:42.190Z,6.59
2023-02-11T14:50:19.478Z,6.56
2023-02-11T14:52:48.864Z,6.54
2023-02-11T14:55:29.260Z,6.54
2023-02-11T14:58:08.929Z,6.49
2023-02-11T15:00:38.861Z,6.43
2023-02-11T15:03:07.580Z,6.36
2023-02-11T15:05:36.671Z,6.30
2023-02-11T15:08:09.078Z,6.26
2023-02-11T15:10:43.763Z,6.22
2023-02-11T15:13:19.729Z,6.20
2023-02-11T15:15:53.364Z,6.16
2023-02-11T15:18:27.195Z,6.17
2023-02-11T15:20:56.096Z,6.12
2023-02-11T15:23:27.861Z,6.08
2023-02-11T15:25:56.846Z,6.04
2023-02-11T15:28:27.279Z,6.06
2023-02-11T15:31:02.860Z,6.03
2023-02-11T15:33:32.457Z,6.00
2023-02-11T15:36:01.941Z,5.99
2023-02-11T15:38:31.126Z,5.98
2023-02-11T15:41:01.243Z,5.95
2023-02-11T15:43:42.967Z,5.93
2023-02-11T15:46:15.983Z,5.95
2023-02-11T15:48:46.535Z,5.94
2023-02-11T15:51:22.260Z,5.97
2023-02-11T15:53:57.076Z,5.92
2023-02-11T15:56:29.968Z,5.91
2023-02-11T15:59:01.086Z,5.88
2023-02-11T16:01:34.377Z,5.85
2023-02-11T16:04:04.102Z,5.84
2023-02-11T16:06:38.628Z,5.86
2023-02-11T16:09:24.471Z,5.85
2023-02-11T16:11:59.436Z,5.84
2023-02-11T16:14:32.917Z,5.83
2023-02-11T16:17:06.795Z,5.82
2023-02-11T16:19:36.461Z,5.84
2023-02-11T16:22:11.545Z,5.86
2023-02-11T16:24:40.928Z,5.87
2023-02-11T16:27:21.298Z,5.86
2023-02-11T16:29:51.126Z,5.89
2023-02-11T16:32:23.045Z,5.88
2023-02-11T16:34:52.457Z,5.94
2023-02-11T16:37:20.902Z,5.93
2023-02-11T16:39:49.264Z,5.92
2023-02-11T16:42:17.711Z,5.96
2023-02-11T16:44:46.083Z,5.97
2023-02-11T16:47:24.401Z,5.96
2023-02-11T16:49:52.897Z,5.87
2023-02-11T16:52:23.268Z,6.01
2023-02-11T16:54:51.906Z,5.98
2023-02-11T16:57:22.370Z,6.01
2023-02-11T16:59:50.878Z,6.10
2023-02-11T17:02:25.477Z,6.16
2023-02-11T17:04:54.995Z,6.10
2023-02-11T17:07:23.709Z,6.08
2023-02-11T17:09:53.112Z,6.06
2023-02-11T17:12:21.758Z,6.12
2023-02-11T17:14:50.205Z,6.04
2023-02-11T17:17:18.933Z,6.12
2023-02-11T17:19:48.956Z,6.12
2023-02-11T17:22:17.316Z,6.10
2023-02-11T17:24:45.684Z,6.12
2023-02-11T17:27:15.450Z,6.13
2023-02-11T17:29:43.894Z,6.12
2023-02-11T17:32:12.334Z,6.10
2023-02-11T17:34:40.731Z,6.12
2023-02-11T17:37:10.535Z,6.08
2023-02-11T17:39:39.432Z,6.08
2023-02-11T17:42:08.885Z,6.11
2023-02-11T17:44:37.590Z,6.10
2023-02-11T17:47:06.300Z,6.08
2023-02-11T17:49:34.681Z,6.08
2023-02-11T17:52:03.091Z,6.08
2023-02-11T17:54:32.919Z,6.07
2023-02-11T17:57:01.344Z,6.05
2023-02-11T17:59:35.537Z,6.08
2023-02-11T18:02:04.219Z,6.05
2023-02-11T18:04:34.182Z,5.95
2023-02-11T18:07:02.597Z,6.07
2023-02-11T18:09:32.404Z,6.04
2023-02-11T18:12:00.767Z,6.04
2023-02-11T18:14:29.161Z,6.02
2023-02-11T18:16:57.627Z,6.03
2023-02-11T18:19:26.108Z,6.05
2023-02-11T18:21:54.484Z,6.04
2023-02-11T18:24:22.936Z,6.05
2023-02-11T18:26:52.844Z,6.05
2023-02-11T18:29:21.287Z,6.08
2023-02-11T18:31:49.932Z,6.05
2023-02-11T18:34:18.399Z,6.09
2023-02-11T18:36:47.939Z,6.10
2023-02-11T18:39:16.432Z,6.08
2023-02-11T18:41:44.844Z,6.10
2023-02-11T18:44:14.912Z,6.09
2023-02-11T18:46:43.453Z,6.07
2023-02-11T18:49:13.359Z,6.11
2023-02-11T18:51:41.776Z,6.11
2023-02-11T18:54:10.178Z,6.09
2023-02-11T18:56:38.656Z,6.09
2023-02-11T18:59:07.194Z,6.10
2023-02-11T19:01:39.318Z,6.10
2023-02-11T19:04:08.286Z,6.11
2023-02-11T19:06:38.560Z,6.10
2023-02-11T19:09:10.006Z,6.11
2023-02-11T19:11:50.159Z,6.12
2023-02-11T19:14:21.778Z,6.13
2023-02-11T19:16:53.257Z,6.13
2023-02-11T19:19:24.018Z,6.12
2023-02-11T19:21:52.557Z,6.15
2023-02-11T19:24:21.556Z,6.09
2023-02-11T19:26:51.862Z,6.04
2023-02-11T19:29:20.669Z,6.14
2023-02-11T19:31:50.875Z,6.15
2023-02-11T19:34:21.054Z,6.16
2023-02-11T19:36:49.687Z,6.15
2023-02-11T19:39:18.755Z,6.26
2023-02-11T19:41:47.723Z,6.90
2023-02-11T19:44:16.864Z,6.57
2023-02-11T19:46:46.302Z,6.46
2023-02-11T19:49:23.244Z,6.40
2023-02-11T19:51:52.044Z,6.40
2023-02-11T19:54:20.790Z,6.37
2023-02-11T19:56:49.962Z,6.38
2023-02-11T19:59:18.391Z,6.36
2023-02-11T20:01:49.183Z,6.40
2023-02-11T20:04:20.101Z,6.42
2023-02-11T20:06:49.829Z,6.95
2023-02-11T20:09:18.381Z,6.87
2023-02-11T20:11:47.094Z,6.89
2023-02-11T20:14:16.173Z,6.65
2023-02-11T20:16:49.226Z,6.56
2023-02-11T20:19:22.021Z,6.63
2023-02-11T20:21:53.819Z,6.52
2023-02-11T20:24:23.183Z,6.55
2023-02-11T20:26:55.923Z,6.54
2023-02-11T20:29:25.609Z,6.43
2023-02-11T20:31:54.376Z,6.37
2023-02-11T20:34:25.318Z,6.41
2023-02-11T20:36:54.336Z,7.32
2023-02-11T20:39:23.977Z,7.86
2023-02-11T20:41:54.039Z,7.39
2023-02-11T20:44:23.497Z,7.00
2023-02-11T20:46:54.213Z,6.78
2023-02-11T20:49:27.125Z,6.77
2023-02-11T20:51:56.916Z,6.79
2023-02-11T20:54:26.535Z,6.51
2023-02-11T20:56:57.113Z,6.53
2023-02-11T20:59:26.988Z,6.57
2023-02-11T21:01:57.142Z,6.51
2023-02-11T21:04:29.859Z,6.49
2023-02-11T21:07:00.416Z,6.50
2023-02-11T21:09:30.960Z,6.49
2023-02-11T21:11:59.794Z,6.48
2023-02-11T21:14:28.752Z,6.46
2023-02-11T21:16:57.737Z,6.50
2023-02-11T21:19:27.880Z,6.50
2023-02-11T21:21:57.522Z,6.51
2023-02-11T21:24:26.006Z,6.39
2023-02-11T21:26:54.946Z,6.48
2023-02-11T21:29:23.655Z,6.46
2023-02-11T21:31:52.253Z,6.49
2023-02-11T21:34:21.025Z,6.49
2023-02-11T21:36:54.390Z,6.99
2023-02-11T21:39:22.818Z,6.86
2023-02-11T21:41:51.840Z,6.72
2023-02-11T21:44:20.818Z,6.75
2023-02-11T21:46:49.288Z,6.75
2023-02-11T21:49:17.995Z,6.89
2023-02-11T21:51:46.397Z,6.86
2023-02-11T21:54:18.949Z,6.84
2023-02-11T21:56:47.549Z,6.86
2023-02-11T21:59:16.668Z,6.84
2023-02-11T22:01:47.313Z,6.84
2023-02-11T22:04:15.829Z,6.80
2023-02-11T22:06:45.091Z,6.79
2023-02-11T22:09:59.728Z,6.75
2023-02-11T22:12:29.587Z,6.94
2023-02-11T22:14:58.009Z,7.25
2023-02-11T22:17:26.520Z,7.20
2023-02-11T22:19:56.918Z,7.22
2023-02-11T22:22:25.347Z,7.17
2023-02-11T22:24:54.266Z,7.06
2023-02-11T22:27:23.151Z,7.13
2023-02-11T22:29:53.696Z,7.10
2023-02-11T22:32:22.133Z,6.95
2023-02-11T22:34:53.223Z,6.94
2023-02-11T22:37:22.237Z,6.90
2023-02-11T22:39:50.848Z,7.78
2023-02-11T22:42:19.381Z,7.45
2023-02-11T22:44:48.243Z,7.36
2023-02-11T22:47:18.081Z,7.18
2023-02-11T22:49:46.477Z,7.03
2023-02-11T22:52:14.897Z,6.91
2023-02-11T22:54:43.517Z,6.84
2023-02-11T22:57:11.888Z,6.77
2023-02-11T22:59:40.278Z,6.73
2023-02-11T23:02:08.970Z,6.72
2023-02-11T23:04:38.873Z,6.69
2023-02-11T23:07:07.358Z,6.64
2023-02-11T23:09:35.846Z,6.62
2023-02-11T23:12:04.372Z,6.61
2023-02-11T23:14:32.900Z,6.61
2023-02-11T23:17:01.347Z,6.54
2023-02-11T23:19:29.909Z,6.71
2023-02-11T23:21:59.813Z,6.60
2023-02-11T23:24:28.343Z,6.64
2023-02-11T23:26:56.834Z,6.61
2023-02-11T23:29:25.468Z,6.59
2023-02-11T23:31:55.838Z,6.61
2023-02-11T23:34:26.486Z,6.84
2023-02-11T23:36:55.154Z,6.68
2023-02-11T23:39:24.989Z,6.66
2023-02-11T23:41:59.090Z,6.61
2023-02-11T23:44:27.620Z,6.58
2023-02-11T23:46:56.341Z,6.62
2023-02-11T23:49:25.025Z,6.56
2023-02-11T23:51:53.539Z,6.47
2023-02-11T23:54:22.027Z,6.56
2023-02-11T23:56:51.824Z,6.55
2023-02-11T23:59:20.213Z,6.55
